sensor_id;sensor_type;location;lat;lon;timestamp;pressure;altitude;pressure_sealevel;temperature;humidity
40994;BME280;26722;43.212;27.932;2023-07-02T00:02:17;54955.63;;;-146.72;62.65
40994;BME280;26722;43.212;27.932;2023-07-02T00:04:44;54964.09;;;-146.72;62.93
40994;BME280;26722;43.212;27.932;2023-07-02T00:07:09;54949.31;;;-146.72;62.93
40994;BME280;26722;43.212;27.932;2023-07-02T00:09:34;54955.63;;;-146.72;63.20
40994;BME280;26722;43.212;27.932;2023-07-02T00:12:00;54942.97;;;-146.72;63.27
40994;BME280;26722;43.212;27.932;2023-07-02T00:14:25;54964.09;;;-146.72;63.68
40994;BME280;26722;43.212;27.932;2023-07-02T00:16:50;54964.09;;;-146.72;63.64
40994;BME280;26722;43.212;27.932;2023-07-02T00:19:16;54953.53;;;-146.72;64.04
40994;BME280;26722;43.212;27.932;2023-07-02T00:21:41;54968.31;;;-146.72;63.97
40994;BME280;26722;43.212;27.932;2023-07-02T00:24:07;54961.97;;;-146.72;64.35
40994;BME280;26722;43.212;27.932;2023-07-02T00:26:34;54955.63;;;-146.72;64.51
40994;BME280;26722;43.212;27.932;2023-07-02T00:29:00;54953.53;;;-146.72;64.67
40994;BME280;26722;43.212;27.932;2023-07-02T00:31:25;54947.19;;;-146.72;64.55
40994;BME280;26722;43.212;27.932;2023-07-02T00:33:50;54959.88;;;-146.72;64.43
40994;BME280;26722;43.212;27.932;2023-07-02T00:36:16;54957.75;;;-146.72;64.46
40994;BME280;26722;43.212;27.932;2023-07-02T00:38:42;54955.63;;;-146.72;64.91
40994;BME280;26722;43.212;27.932;2023-07-02T00:41:07;54959.88;;;-146.72;65.31
40994;BME280;26722;43.212;27.932;2023-07-02T00:43:33;54955.63;;;-146.72;65.61
40994;BME280;26722;43.212;27.932;2023-07-02T00:45:58;54957.75;;;-146.72;65.74
40994;BME280;26722;43.212;27.932;2023-07-02T00:48:24;54949.31;;;-146.72;66.27
40994;BME280;26722;43.212;27.932;2023-07-02T00:50:49;54955.63;;;-146.72;66.72
40994;BME280;26722;43.212;27.932;2023-07-02T00:53:15;54940.88;;;-146.72;67.19
40994;BME280;26722;43.212;27.932;2023-07-02T00:55:40;54964.09;;;-146.72;67.68
40994;BME280;26722;43.212;27.932;2023-07-02T00:58:05;54949.31;;;-146.72;68.21
40994;BME280;26722;43.212;27.932;2023-07-02T01:00:33;54949.31;;;-146.72;68.14
40994;BME280;26722;43.212;27.932;2023-07-02T01:02:58;54951.41;;;-146.72;68.75
40994;BME280;26722;43.212;27.932;2023-07-02T01:05:28;54951.41;;;-146.72;69.07
40994;BME280;26722;43.212;27.932;2023-07-02T01:08:00;54959.88;;;-146.72;69.75
40994;BME280;26722;43.212;27.932;2023-07-02T01:10:25;54959.88;;;-146.72;69.90
40994;BME280;26722;43.212;27.932;2023-07-02T01:12:51;54955.63;;;-146.72;70.46
40994;BME280;26722;43.212;27.932;2023-07-02T01:15:17;54964.09;;;-146.72;70.86
40994;BME280;26722;43.212;27.932;2023-07-02T01:17:42;54957.75;;;-146.72;71.38
40994;BME280;26722;43.212;27.932;2023-07-02T01:20:09;54961.97;;;-146.72;71.65
40994;BME280;26722;43.212;27.932;2023-07-02T01:22:35;54957.75;;;-146.72;72.52
40994;BME280;26722;43.212;27.932;2023-07-02T01:25:00;54942.97;;;-146.72;72.75
40994;BME280;26722;43.212;27.932;2023-07-02T01:27:29;54951.41;;;-146.72;73.14
40994;BME280;26722;43.212;27.932;2023-07-02T01:29:55;54945.09;;;-146.72;74.00
40994;BME280;26722;43.212;27.932;2023-07-02T01:32:20;54968.31;;;-146.72;73.86
40994;BME280;26722;43.212;27.932;2023-07-02T01:34:46;54953.53;;;-146.72;74.70
40994;BME280;26722;43.212;27.932;2023-07-02T01:37:17;54961.97;;;-146.72;75.35
40994;BME280;26722;43.212;27.932;2023-07-02T01:39:43;54947.19;;;-146.72;76.05
40994;BME280;26722;43.212;27.932;2023-07-02T01:42:12;54961.97;;;-146.72;76.77
40994;BME280;26722;43.212;27.932;2023-07-02T01:44:39;54964.09;;;-146.72;76.82
40994;BME280;26722;43.212;27.932;2023-07-02T01:47:05;54959.88;;;-146.72;77.26
40994;BME280;26722;43.212;27.932;2023-07-02T01:49:30;54966.19;;;-146.72;77.75
40994;BME280;26722;43.212;27.932;2023-07-02T01:51:56;54953.53;;;-146.72;78.57
40994;BME280;26722;43.212;27.932;2023-07-02T01:54:22;54951.41;;;-146.72;78.34
40994;BME280;26722;43.212;27.932;2023-07-02T01:56:47;54964.09;;;-146.72;78.85
40994;BME280;26722;43.212;27.932;2023-07-02T01:59:13;54964.09;;;-146.72;79.66
40994;BME280;26722;43.212;27.932;2023-07-02T02:01:38;54964.09;;;-146.72;79.95
40994;BME280;26722;43.212;27.932;2023-07-02T02:04:09;54964.09;;;-146.72;80.03
40994;BME280;26722;43.212;27.932;2023-07-02T02:06:35;54951.41;;;-146.72;80.59
40994;BME280;26722;43.212;27.932;2023-07-02T02:09:01;54970.41;;;-146.72;81.00
40994;BME280;26722;43.212;27.932;2023-07-02T02:11:28;54951.41;;;-146.72;80.96
40994;BME280;26722;43.212;27.932;2023-07-02T02:13:55;54974.63;;;-146.72;80.59
40994;BME280;26722;43.212;27.932;2023-07-02T02:16:21;54978.88;;;-146.72;80.35
40994;BME280;26722;43.212;27.932;2023-07-02T02:18:47;54966.19;;;-146.72;80.99
40994;BME280;26722;43.212;27.932;2023-07-02T02:21:12;54953.53;;;-146.72;80.83
40994;BME280;26722;43.212;27.932;2023-07-02T02:23:37;54964.09;;;-146.72;81.51
40994;BME280;26722;43.212;27.932;2023-07-02T02:26:02;54961.97;;;-146.72;81.43
40994;BME280;26722;43.212;27.932;2023-07-02T02:28:28;54961.97;;;-146.72;81.48
40994;BME280;26722;43.212;27.932;2023-07-02T02:30:53;54951.41;;;-146.72;81.19
40994;BME280;26722;43.212;27.932;2023-07-02T02:33:18;54949.31;;;-146.72;81.38
40994;BME280;26722;43.212;27.932;2023-07-02T02:35:44;54968.31;;;-146.72;81.24
40994;BME280;26722;43.212;27.932;2023-07-02T02:38:10;54951.41;;;-146.72;80.99
40994;BME280;26722;43.212;27.932;2023-07-02T02:40:36;54951.41;;;-146.72;81.16
40994;BME280;26722;43.212;27.932;2023-07-02T02:43:01;54959.88;;;-146.72;81.09
40994;BME280;26722;43.212;27.932;2023-07-02T02:45:26;54951.41;;;-146.72;80.92
40994;BME280;26722;43.212;27.932;2023-07-02T02:47:52;54951.41;;;-146.72;80.95
40994;BME280;26722;43.212;27.932;2023-07-02T02:50:17;54955.63;;;-146.72;80.62
40994;BME280;26722;43.212;27.932;2023-07-02T02:52:42;54955.63;;;-146.72;80.27
40994;BME280;26722;43.212;27.932;2023-07-02T02:55:08;54947.19;;;-146.72;79.97
40994;BME280;26722;43.212;27.932;2023-07-02T02:57:34;54955.63;;;-146.72;79.79
40994;BME280;26722;43.212;27.932;2023-07-02T02:59:59;54964.09;;;-146.72;79.61
40994;BME280;26722;43.212;27.932;2023-07-02T03:02:24;54947.19;;;-146.72;79.59
40994;BME280;26722;43.212;27.932;2023-07-02T03:04:50;54951.41;;;-146.72;79.20
40994;BME280;26722;43.212;27.932;2023-07-02T03:07:17;54930.31;;;-146.72;77.96
40994;BME280;26722;43.212;27.932;2023-07-02T03:09:42;54942.97;;;-146.72;76.69
40994;BME280;26722;43.212;27.932;2023-07-02T03:12:08;54917.63;;;-146.72;74.99
40994;BME280;26722;43.212;27.932;2023-07-02T03:14:33;54928.19;;;-146.72;73.51
40994;BME280;26722;43.212;27.932;2023-07-02T03:16:59;54904.97;;;-146.72;71.37
40994;BME280;26722;43.212;27.932;2023-07-02T03:19:24;54909.19;;;-146.72;69.77
40994;BME280;26722;43.212;27.932;2023-07-02T03:21:49;54892.31;;;-146.72;68.17
40994;BME280;26722;43.212;27.932;2023-07-02T03:24:15;54888.09;;;-146.72;66.36
40994;BME280;26722;43.212;27.932;2023-07-02T03:26:41;54875.41;;;-146.72;65.01
40994;BME280;26722;43.212;27.932;2023-07-02T03:29:07;54866.97;;;-146.72;62.98
40994;BME280;26722;43.212;27.932;2023-07-02T03:31:32;54877.53;;;-146.72;61.77
40994;BME280;26722;43.212;27.932;2023-07-02T03:33:57;54869.09;;;-146.72;61.16
40994;BME280;26722;43.212;27.932;2023-07-02T03:36:22;54858.53;;;-146.72;59.88
40994;BME280;26722;43.212;27.932;2023-07-02T03:38:48;54852.19;;;-146.72;59.37
40994;BME280;26722;43.212;27.932;2023-07-02T03:41:13;54854.31;;;-146.72;58.73
40994;BME280;26722;43.212;27.932;2023-07-02T03:43:38;54860.63;;;-146.72;58.37
40994;BME280;26722;43.212;27.932;2023-07-02T03:46:04;54847.97;;;-146.72;58.29
40994;BME280;26722;43.212;27.932;2023-07-02T03:48:29;54858.53;;;-146.72;58.06
40994;BME280;26722;43.212;27.932;2023-07-02T03:50:54;54858.53;;;-146.72;58.09
40994;BME280;26722;43.212;27.932;2023-07-02T03:53:19;54856.41;;;-146.72;57.64
40994;BME280;26722;43.212;27.932;2023-07-02T03:55:45;54845.88;;;-146.72;57.46
40994;BME280;26722;43.212;27.932;2023-07-02T03:58:10;54875.41;;;-146.72;58.48
40994;BME280;26722;43.212;27.932;2023-07-02T04:00:35;54860.63;;;-146.72;59.50
40994;BME280;26722;43.212;27.932;2023-07-02T04:03:01;54852.19;;;-146.72;60.06
40994;BME280;26722;43.212;27.932;2023-07-02T04:05:27;54854.31;;;-146.72;59.17
40994;BME280;26722;43.212;27.932;2023-07-02T04:07:52;54854.31;;;-146.72;58.07
40994;BME280;26722;43.212;27.932;2023-07-02T04:10:17;54837.41;;;-146.72;56.16
40994;BME280;26722;43.212;27.932;2023-07-02T04:12:42;54833.19;;;-146.72;54.15
40994;BME280;26722;43.212;27.932;2023-07-02T04:15:08;54835.31;;;-146.72;52.80
40994;BME280;26722;43.212;27.932;2023-07-02T04:17:34;54828.97;;;-146.72;52.06
40994;BME280;26722;43.212;27.932;2023-07-02T04:19:59;54828.97;;;-146.72;52.23
40994;BME280;26722;43.212;27.932;2023-07-02T04:22:25;54837.41;;;-146.72;52.72
40994;BME280;26722;43.212;27.932;2023-07-02T04:24:50;54826.88;;;-146.72;51.76
40994;BME280;26722;43.212;27.932;2023-07-02T04:27:15;54814.19;;;-146.72;50.88
40994;BME280;26722;43.212;27.932;2023-07-02T04:29:44;54818.41;;;-146.72;49.83
40994;BME280;26722;43.212;27.932;2023-07-02T04:32:09;54803.63;;;-146.72;49.07
40994;BME280;26722;43.212;27.932;2023-07-02T04:34:35;54820.53;;;-146.72;48.72
40994;BME280;26722;43.212;27.932;2023-07-02T04:37:02;54812.09;;;-146.72;48.11
40994;BME280;26722;43.212;27.932;2023-07-02T04:39:27;54809.97;;;-146.72;48.07
40994;BME280;26722;43.212;27.932;2023-07-02T04:41:53;54824.75;;;-146.72;48.74
40994;BME280;26722;43.212;27.932;2023-07-02T04:44:18;54818.41;;;-146.72;49.75
40994;BME280;26722;43.212;27.932;2023-07-02T04:46:43;54833.19;;;-146.72;50.81
40994;BME280;26722;43.212;27.932;2023-07-02T04:49:09;54828.97;;;-146.72;51.59
40994;BME280;26722;43.212;27.932;2023-07-02T04:51:34;54860.63;;;-146.72;53.28
40994;BME280;26722;43.212;27.932;2023-07-02T04:53:59;54854.31;;;-146.72;54.90
40994;BME280;26722;43.212;27.932;2023-07-02T04:56:25;54858.53;;;-146.72;56.01
40994;BME280;26722;43.212;27.932;2023-07-02T04:58:50;54845.88;;;-146.72;56.12
40994;BME280;26722;43.212;27.932;2023-07-02T05:01:15;54866.97;;;-146.72;56.68
40994;BME280;26722;43.212;27.932;2023-07-02T05:03:40;54871.19;;;-146.72;57.83
40994;BME280;26722;43.212;27.932;2023-07-02T05:06:06;54871.19;;;-146.72;58.87
40994;BME280;26722;43.212;27.932;2023-07-02T05:08:31;54879.63;;;-146.72;59.42
40994;BME280;26722;43.212;27.932;2023-07-02T05:10:56;54883.84;;;-146.72;60.60
40994;BME280;26722;43.212;27.932;2023-07-02T05:13:22;54892.31;;;-146.72;61.29
40994;BME280;26722;43.212;27.932;2023-07-02T05:15:47;54883.84;;;-146.72;61.66
40994;BME280;26722;43.212;27.932;2023-07-02T05:18:12;54888.09;;;-146.72;61.44
40994;BME280;26722;43.212;27.932;2023-07-02T05:20:38;54896.53;;;-146.72;61.17
40994;BME280;26722;43.212;27.932;2023-07-02T05:23:03;54875.41;;;-146.72;61.00
40994;BME280;26722;43.212;27.932;2023-07-02T05:25:28;54869.09;;;-146.72;60.57
40994;BME280;26722;43.212;27.932;2023-07-02T05:27:53;54890.19;;;-146.72;60.65
40994;BME280;26722;43.212;27.932;2023-07-02T05:30:19;54883.84;;;-146.72;60.78
40994;BME280;26722;43.212;27.932;2023-07-02T05:32:44;54866.97;;;-146.72;60.82
40994;BME280;26722;43.212;27.932;2023-07-02T05:35:09;54862.75;;;-146.72;60.40
40994;BME280;26722;43.212;27.932;2023-07-02T05:37:35;54866.97;;;-146.72;60.33
40994;BME280;26722;43.212;27.932;2023-07-02T05:40:00;54858.53;;;-146.72;60.81
40994;BME280;26722;43.212;27.932;2023-07-02T05:42:25;54866.97;;;-146.72;60.29
40994;BME280;26722;43.212;27.932;2023-07-02T05:44:50;54877.53;;;-146.72;60.50
40994;BME280;26722;43.212;27.932;2023-07-02T05:47:16;54879.63;;;-146.72;60.11
40994;BME280;26722;43.212;27.932;2023-07-02T05:49:42;54862.75;;;-146.72;59.17
40994;BME280;26722;43.212;27.932;2023-07-02T05:52:07;54845.88;;;-146.72;59.21
40994;BME280;26722;43.212;27.932;2023-07-02T05:54:33;54847.97;;;-146.72;59.11
40994;BME280;26722;43.212;27.932;2023-07-02T05:56:58;54864.88;;;-146.72;58.61
40994;BME280;26722;43.212;27.932;2023-07-02T05:59:23;54858.53;;;-146.72;58.81
40994;BME280;26722;43.212;27.932;2023-07-02T06:01:49;54847.97;;;-146.72;58.31
40994;BME280;26722;43.212;27.932;2023-07-02T06:04:14;54862.75;;;-146.72;58.28
40994;BME280;26722;43.212;27.932;2023-07-02T06:06:39;54845.88;;;-146.72;58.56
40994;BME280;26722;43.212;27.932;2023-07-02T06:09:04;54843.75;;;-146.72;57.63
40994;BME280;26722;43.212;27.932;2023-07-02T06:11:30;54833.19;;;-146.72;56.70
40994;BME280;26722;43.212;27.932;2023-07-02T06:13:55;54843.75;;;-146.72;56.38
40994;BME280;26722;43.212;27.932;2023-07-02T06:16:20;54845.88;;;-146.72;56.10
40994;BME280;26722;43.212;27.932;2023-07-02T06:18:46;54856.41;;;-146.72;56.55
40994;BME280;26722;43.212;27.932;2023-07-02T06:21:11;54845.88;;;-146.72;56.73
40994;BME280;26722;43.212;27.932;2023-07-02T06:23:40;54858.53;;;-146.72;57.10
40994;BME280;26722;43.212;27.932;2023-07-02T06:26:06;54854.31;;;-146.72;57.28
40994;BME280;26722;43.212;27.932;2023-07-02T06:28:31;54860.63;;;-146.72;57.93
40994;BME280;26722;43.212;27.932;2023-07-02T06:30:57;54850.09;;;-146.72;58.79
40994;BME280;26722;43.212;27.932;2023-07-02T06:33:22;54850.09;;;-146.72;59.08
40994;BME280;26722;43.212;27.932;2023-07-02T06:35:48;54862.75;;;-146.72;59.58
40994;BME280;26722;43.212;27.932;2023-07-02T06:38:14;54850.09;;;-146.72;59.56
40994;BME280;26722;43.212;27.932;2023-07-02T06:40:39;54866.97;;;-146.72;59.65
40994;BME280;26722;43.212;27.932;2023-07-02T06:43:05;54871.19;;;-146.72;59.50
40994;BME280;26722;43.212;27.932;2023-07-02T06:45:30;54858.53;;;-146.72;60.37
40994;BME280;26722;43.212;27.932;2023-07-02T06:47:55;54862.75;;;-146.72;60.52
40994;BME280;26722;43.212;27.932;2023-07-02T06:50:20;54866.97;;;-146.72;61.36
40994;BME280;26722;43.212;27.932;2023-07-02T06:52:47;54864.88;;;-146.72;61.31
40994;BME280;26722;43.212;27.932;2023-07-02T06:55:12;54892.31;;;-146.72;61.37
40994;BME280;26722;43.212;27.932;2023-07-02T06:57:44;54862.75;;;-146.72;61.80
40994;BME280;26722;43.212;27.932;2023-07-02T07:00:10;54866.97;;;-146.72;62.17
40994;BME280;26722;43.212;27.932;2023-07-02T07:02:36;54858.53;;;-146.72;61.45
40994;BME280;26722;43.212;27.932;2023-07-02T07:05:01;54858.53;;;-146.72;61.01
40994;BME280;26722;43.212;27.932;2023-07-02T07:07:29;54850.09;;;-146.72;60.04
40994;BME280;26722;43.212;27.932;2023-07-02T07:09:54;54850.09;;;-146.72;59.19
40994;BME280;26722;43.212;27.932;2023-07-02T07:12:20;54826.88;;;-146.72;57.36
40994;BME280;26722;43.212;27.932;2023-07-02T07:14:45;54839.53;;;-146.72;57.21
40994;BME280;26722;43.212;27.932;2023-07-02T07:17:11;54833.19;;;-146.72;57.40
40994;BME280;26722;43.212;27.932;2023-07-02T07:19:36;54839.53;;;-146.72;57.44
40994;BME280;26722;43.212;27.932;2023-07-02T07:22:01;54845.88;;;-146.72;57.33
40994;BME280;26722;43.212;27.932;2023-07-02T07:24:27;54847.97;;;-146.72;58.12
40994;BME280;26722;43.212;27.932;2023-07-02T07:26:52;54852.19;;;-146.72;59.03
40994;BME280;26722;43.212;27.932;2023-07-02T07:29:17;54845.88;;;-146.72;59.43
40994;BME280;26722;43.212;27.932;2023-07-02T07:31:43;54847.97;;;-146.72;59.67
40994;BME280;26722;43.212;27.932;2023-07-02T07:34:08;54850.09;;;-146.72;59.59
40994;BME280;26722;43.212;27.932;2023-07-02T07:36:34;54845.88;;;-146.72;60.29
40994;BME280;26722;43.212;27.932;2023-07-02T07:38:59;54854.31;;;-146.72;60.93
40994;BME280;26722;43.212;27.932;2023-07-02T07:41:24;54854.31;;;-146.72;60.63
40994;BME280;26722;43.212;27.932;2023-07-02T07:43:50;54845.88;;;-146.72;60.80
40994;BME280;26722;43.212;27.932;2023-07-02T07:46:15;54850.09;;;-146.72;60.96
40994;BME280;26722;43.212;27.932;2023-07-02T07:48:40;54856.41;;;-146.72;59.76
40994;BME280;26722;43.212;27.932;2023-07-02T07:51:06;54837.41;;;-146.72;59.50
40994;BME280;26722;43.212;27.932;2023-07-02T07:53:31;54850.09;;;-146.72;59.27
40994;BME280;26722;43.212;27.932;2023-07-02T07:55:56;54833.19;;;-146.72;57.81
40994;BME280;26722;43.212;27.932;2023-07-02T07:58:22;54839.53;;;-146.72;57.19
40994;BME280;26722;43.212;27.932;2023-07-02T08:00:48;54841.63;;;-146.72;56.79
40994;BME280;26722;43.212;27.932;2023-07-02T08:03:13;54833.19;;;-146.72;57.05
40994;BME280;26722;43.212;27.932;2023-07-02T08:05:38;54835.31;;;-146.72;56.33
40994;BME280;26722;43.212;27.932;2023-07-02T08:08:03;54818.41;;;-146.72;56.60
40994;BME280;26722;43.212;27.932;2023-07-02T08:10:29;54839.53;;;-146.72;55.93
40994;BME280;26722;43.212;27.932;2023-07-02T08:12:54;54828.97;;;-146.72;55.82
40994;BME280;26722;43.212;27.932;2023-07-02T08:15:19;54828.97;;;-146.72;55.19
40994;BME280;26722;43.212;27.932;2023-07-02T08:17:45;54831.09;;;-146.72;54.77
40994;BME280;26722;43.212;27.932;2023-07-02T08:20:10;54816.31;;;-146.72;53.84
40994;BME280;26722;43.212;27.932;2023-07-02T08:22:40;54826.88;;;-146.72;53.43
40994;BME280;26722;43.212;27.932;2023-07-02T08:25:06;54812.09;;;-146.72;53.52
40994;BME280;26722;43.212;27.932;2023-07-02T08:27:31;54820.53;;;-146.72;53.65
40994;BME280;26722;43.212;27.932;2023-07-02T08:29:56;54837.41;;;-146.72;54.63
40994;BME280;26722;43.212;27.932;2023-07-02T08:32:22;54824.75;;;-146.72;54.83
40994;BME280;26722;43.212;27.932;2023-07-02T08:34:47;54824.75;;;-146.72;55.19
40994;BME280;26722;43.212;27.932;2023-07-02T08:37:12;54820.53;;;-146.72;55.42
40994;BME280;26722;43.212;27.932;2023-07-02T08:39:38;54835.31;;;-146.72;56.98
40994;BME280;26722;43.212;27.932;2023-07-02T08:42:04;54828.97;;;-146.72;58.09
40994;BME280;26722;43.212;27.932;2023-07-02T08:44:30;54841.63;;;-146.72;59.03
40994;BME280;26722;43.212;27.932;2023-07-02T08:46:55;54835.31;;;-146.72;59.50
40994;BME280;26722;43.212;27.932;2023-07-02T08:49:22;54845.88;;;-146.72;60.59
40994;BME280;26722;43.212;27.932;2023-07-02T08:51:47;54841.63;;;-146.72;60.27
40994;BME280;26722;43.212;27.932;2023-07-02T08:54:13;54841.63;;;-146.72;59.20
40994;BME280;26722;43.212;27.932;2023-07-02T08:56:39;54826.88;;;-146.72;58.53
40994;BME280;26722;43.212;27.932;2023-07-02T08:59:08;54837.41;;;-146.72;59.28
40994;BME280;26722;43.212;27.932;2023-07-02T09:01:43;54828.97;;;-146.72;60.44
40994;BME280;26722;43.212;27.932;2023-07-02T09:04:14;54833.19;;;-146.72;60.09
40994;BME280;26722;43.212;27.932;2023-07-02T09:06:39;54833.19;;;-146.72;59.73
40994;BME280;26722;43.212;27.932;2023-07-02T09:09:05;54841.63;;;-146.72;59.05
40994;BME280;26722;43.212;27.932;2023-07-02T09:11:30;54833.19;;;-146.72;59.96
40994;BME280;26722;43.212;27.932;2023-07-02T09:13:56;54831.09;;;-146.72;59.88
40994;BME280;26722;43.212;27.932;2023-07-02T09:16:26;54833.19;;;-146.72;59.46
40994;BME280;26722;43.212;27.932;2023-07-02T09:18:55;54837.41;;;-146.72;59.91
40994;BME280;26722;43.212;27.932;2023-07-02T09:21:20;54837.41;;;-146.72;59.96
40994;BME280;26722;43.212;27.932;2023-07-02T09:23:45;54833.19;;;-146.72;60.00
40994;BME280;26722;43.212;27.932;2023-07-02T09:26:19;54831.09;;;-146.72;60.37
40994;BME280;26722;43.212;27.932;2023-07-02T09:28:44;54837.41;;;-146.72;60.20
40994;BME280;26722;43.212;27.932;2023-07-02T09:31:09;54841.63;;;-146.72;60.69
40994;BME280;26722;43.212;27.932;2023-07-02T09:33:35;54843.75;;;-146.72;60.83
40994;BME280;26722;43.212;27.932;2023-07-02T09:36:00;54839.53;;;-146.72;61.16
40994;BME280;26722;43.212;27.932;2023-07-02T09:38:25;54839.53;;;-146.72;61.51
40994;BME280;26722;43.212;27.932;2023-07-02T09:40:51;54843.75;;;-146.72;61.49
40994;BME280;26722;43.212;27.932;2023-07-02T09:43:17;54845.88;;;-146.72;61.78
40994;BME280;26722;43.212;27.932;2023-07-02T09:45:44;54847.97;;;-146.72;62.09
40994;BME280;26722;43.212;27.932;2023-07-02T09:48:11;54837.41;;;-146.72;61.89
40994;BME280;26722;43.212;27.932;2023-07-02T09:50:38;54833.19;;;-146.72;62.28
40994;BME280;26722;43.212;27.932;2023-07-02T09:53:03;54835.31;;;-146.72;61.84
40994;BME280;26722;43.212;27.932;2023-07-02T09:55:29;54841.63;;;-146.72;62.19
40994;BME280;26722;43.212;27.932;2023-07-02T09:57:54;54854.31;;;-146.72;62.69
40994;BME280;26722;43.212;27.932;2023-07-02T10:00:19;54850.09;;;-146.72;62.54
40994;BME280;26722;43.212;27.932;2023-07-02T10:02:50;54837.41;;;-146.72;62.43
40994;BME280;26722;43.212;27.932;2023-07-02T10:05:28;54839.53;;;-146.72;62.46
40994;BME280;26722;43.212;27.932;2023-07-02T10:07:55;54841.63;;;-146.72;61.57
40994;BME280;26722;43.212;27.932;2023-07-02T10:10:30;54854.31;;;-146.72;61.70
40994;BME280;26722;43.212;27.932;2023-07-02T10:12:55;54856.41;;;-146.72;61.95
40994;BME280;26722;43.212;27.932;2023-07-02T10:15:27;54850.09;;;-146.72;62.58
40994;BME280;26722;43.212;27.932;2023-07-02T10:18:01;54837.41;;;-146.72;62.53
40994;BME280;26722;43.212;27.932;2023-07-02T10:20:33;54843.75;;;-146.72;62.39
40994;BME280;26722;43.212;27.932;2023-07-02T10:23:00;54850.09;;;-146.72;61.97
40994;BME280;26722;43.212;27.932;2023-07-02T10:25:29;54845.88;;;-146.72;61.97
40994;BME280;26722;43.212;27.932;2023-07-02T10:27:54;54850.09;;;-146.72;62.05
40994;BME280;26722;43.212;27.932;2023-07-02T10:30:30;54841.63;;;-146.72;62.11
40994;BME280;26722;43.212;27.932;2023-07-02T10:33:06;54858.53;;;-146.72;62.22
40994;BME280;26722;43.212;27.932;2023-07-02T10:35:32;54850.09;;;-146.72;62.06
40994;BME280;26722;43.212;27.932;2023-07-02T10:37:57;54860.63;;;-146.72;62.97
40994;BME280;26722;43.212;27.932;2023-07-02T10:40:23;54866.97;;;-146.72;62.78
40994;BME280;26722;43.212;27.932;2023-07-02T10:42:49;54858.53;;;-146.72;63.30
40994;BME280;26722;43.212;27.932;2023-07-02T10:45:14;54864.88;;;-146.72;63.86
40994;BME280;26722;43.212;27.932;2023-07-02T10:47:40;54862.75;;;-146.72;64.04
40994;BME280;26722;43.212;27.932;2023-07-02T10:52:39;54869.09;;;-146.72;64.11
40994;BME280;26722;43.212;27.932;2023-07-02T10:55:05;54858.53;;;-146.72;63.50
40994;BME280;26722;43.212;27.932;2023-07-02T10:57:30;54845.88;;;-146.72;63.40
40994;BME280;26722;43.212;27.932;2023-07-02T11:00:03;54847.97;;;-146.72;63.84
40994;BME280;26722;43.212;27.932;2023-07-02T11:02:33;54854.31;;;-146.72;63.78
40994;BME280;26722;43.212;27.932;2023-07-02T11:04:58;54869.09;;;-146.72;63.62
40994;BME280;26722;43.212;27.932;2023-07-02T11:07:24;54866.97;;;-146.72;63.38
40994;BME280;26722;43.212;27.932;2023-07-02T11:09:50;54850.09;;;-146.72;63.55
40994;BME280;26722;43.212;27.932;2023-07-02T11:12:16;54858.53;;;-146.72;64.13
40994;BME280;26722;43.212;27.932;2023-07-02T11:14:41;54862.75;;;-146.72;64.07
40994;BME280;26722;43.212;27.932;2023-07-02T11:17:07;54854.31;;;-146.72;64.09
40994;BME280;26722;43.212;27.932;2023-07-02T11:19:32;54854.31;;;-146.72;64.58
40994;BME280;26722;43.212;27.932;2023-07-02T11:21:58;54858.53;;;-146.72;63.91
40994;BME280;26722;43.212;27.932;2023-07-02T11:24:33;54854.31;;;-146.72;63.04
40994;BME280;26722;43.212;27.932;2023-07-02T11:26:59;54839.53;;;-146.72;62.26
40994;BME280;26722;43.212;27.932;2023-07-02T11:29:25;54841.63;;;-146.72;61.41
40994;BME280;26722;43.212;27.932;2023-07-02T11:31:50;54843.75;;;-146.72;61.37
40994;BME280;26722;43.212;27.932;2023-07-02T11:34:20;54839.53;;;-146.72;61.46
40994;BME280;26722;43.212;27.932;2023-07-02T11:36:46;54847.97;;;-146.72;61.02
40994;BME280;26722;43.212;27.932;2023-07-02T11:39:11;54847.97;;;-146.72;60.73
40994;BME280;26722;43.212;27.932;2023-07-02T11:41:47;54869.09;;;-146.72;61.62
40994;BME280;26722;43.212;27.932;2023-07-02T11:44:13;54856.41;;;-146.72;62.67
40994;BME280;26722;43.212;27.932;2023-07-02T11:46:38;54850.09;;;-146.72;62.43
40994;BME280;26722;43.212;27.932;2023-07-02T11:49:03;54854.31;;;-146.72;62.81
40994;BME280;26722;43.212;27.932;2023-07-02T11:51:38;54847.97;;;-146.72;61.56
40994;BME280;26722;43.212;27.932;2023-07-02T11:54:04;54847.97;;;-146.72;61.09
40994;BME280;26722;43.212;27.932;2023-07-02T11:56:30;54843.75;;;-146.72;60.95
40994;BME280;26722;43.212;27.932;2023-07-02T11:58:55;54850.09;;;-146.72;60.47
40994;BME280;26722;43.212;27.932;2023-07-02T12:01:20;54837.41;;;-146.72;60.14
40994;BME280;26722;43.212;27.932;2023-07-02T12:03:45;54871.19;;;-146.72;60.83
40994;BME280;26722;43.212;27.932;2023-07-02T12:06:11;54856.41;;;-146.72;61.31
40994;BME280;26722;43.212;27.932;2023-07-02T12:08:36;54858.53;;;-146.72;60.88
40994;BME280;26722;43.212;27.932;2023-07-02T12:11:01;54845.88;;;-146.72;60.98
40994;BME280;26722;43.212;27.932;2023-07-02T12:13:27;54841.63;;;-146.72;61.12
40994;BME280;26722;43.212;27.932;2023-07-02T12:15:52;54858.53;;;-146.72;61.36
40994;BME280;26722;43.212;27.932;2023-07-02T12:18:17;54856.41;;;-146.72;61.03
40994;BME280;26722;43.212;27.932;2023-07-02T12:20:43;54856.41;;;-146.72;60.29
40994;BME280;26722;43.212;27.932;2023-07-02T12:23:08;54850.09;;;-146.72;60.29
40994;BME280;26722;43.212;27.932;2023-07-02T12:25:34;54841.63;;;-146.72;59.42
40994;BME280;26722;43.212;27.932;2023-07-02T12:28:01;54841.63;;;-146.72;58.30